Airport View

Enter AWOS ICAO identifier for current METAR.

ex. KFNL

KMCE 080253Z AUTO 33007KT 10SM CLR 29/09 A2981 RMK AO2 SLP094 T02890094 56009

8 Jul 2020 03:43

Frequency: 132.175

Phone: 209-381-0926

Other Area AWOS: KMER - KMAE - KMOD - KO22

TAF KMCE 072320Z 0800/0824 31010KT P6SM SKC FM080600 VRB04KT P6SM SKC